createdAt,value
2022-09-06T00:02:34.785Z,7.80
2022-09-06T00:07:36.694Z,4.47
2022-09-06T00:12:38.674Z,5.45
2022-09-06T00:17:40.155Z,5.35
2022-09-06T00:22:41.742Z,7.55
2022-09-06T00:27:43.245Z,4.82
2022-09-06T00:32:44.786Z,6.82
2022-09-06T00:37:46.646Z,6.57
2022-09-06T00:42:48.134Z,2.95
2022-09-06T00:47:51.240Z,2.97
2022-09-06T00:52:53.097Z,3.75
2022-09-06T00:57:56.482Z,7.65
2022-09-06T01:02:58.006Z,6.47
2022-09-06T01:08:36.013Z,5.30
2022-09-06T01:13:43.290Z,7.97
2022-09-06T01:19:19.395Z,6.05
2022-09-06T01:24:51.190Z,4.57
2022-09-06T01:30:06.982Z,5.82
2022-09-06T01:35:20.228Z,6.68
2022-09-06T01:40:21.776Z,6.40
2022-09-06T01:45:43.857Z,7.63
2022-09-06T01:50:51.290Z,3.67
2022-09-06T01:56:12.675Z,5.97
2022-09-06T02:01:36.571Z,4.13
2022-09-06T02:06:47.291Z,4.35
2022-09-06T02:11:54.122Z,6.97
2022-09-06T02:16:57.559Z,5.82
2022-09-06T02:22:03.269Z,14.32
2022-09-06T02:27:05.035Z,7.78
2022-09-06T02:32:18.158Z,5.75
2022-09-06T02:37:20.533Z,4.60
2022-09-06T02:42:23.088Z,4.95
2022-09-06T02:47:24.639Z,5.47
2022-09-06T02:52:26.130Z,5.75
2022-09-06T02:57:27.627Z,5.75
2022-09-06T03:02:29.201Z,5.38
2022-09-06T03:07:30.781Z,7.43
2022-09-06T03:12:32.284Z,7.82
2022-09-06T03:17:33.794Z,8.25
2022-09-06T03:22:42.387Z,7.85
2022-09-06T03:27:44.346Z,11.63
2022-09-06T03:32:45.827Z,8.95
2022-09-06T03:37:47.301Z,7.88
2022-09-06T03:42:48.809Z,9.48
2022-09-06T03:47:50.314Z,10.13
2022-09-06T03:52:52.026Z,7.97
2022-09-06T03:57:53.496Z,8.82
2022-09-06T04:02:58.563Z,7.35
2022-09-06T04:08:02.793Z,6.45
2022-09-06T04:13:04.274Z,7.30
2022-09-06T04:18:09.121Z,6.43
2022-09-06T04:23:10.872Z,6.93
2022-09-06T04:28:12.358Z,6.75
2022-09-06T04:33:13.892Z,6.13
2022-09-06T04:38:15.461Z,11.82
2022-09-06T04:43:17.089Z,8.98
2022-09-06T04:48:18.766Z,8.18
2022-09-06T04:53:20.302Z,8.32
2022-09-06T04:58:21.777Z,7.65
2022-09-06T05:03:23.345Z,8.88
2022-09-06T05:08:25.633Z,8.50
2022-09-06T05:13:27.146Z,8.30
2022-09-06T05:18:29.044Z,9.20
2022-09-06T05:23:30.774Z,8.68
2022-09-06T05:28:32.325Z,8.57
2022-09-06T05:33:34.151Z,9.88
2022-09-06T05:38:35.674Z,10.07
2022-09-06T05:43:37.238Z,7.57
2022-09-06T05:48:39.014Z,8.88
2022-09-06T05:53:43.109Z,11.13
2022-09-06T05:58:44.719Z,9.77
2022-09-06T06:03:57.588Z,7.38
2022-09-06T06:08:59.677Z,13.30
2022-09-06T06:14:02.885Z,12.90
2022-09-06T06:19:04.455Z,11.32
2022-09-06T06:24:06.406Z,14.05
2022-09-06T06:29:09.559Z,15.07
2022-09-06T06:34:11.182Z,16.67
2022-09-06T06:39:12.748Z,14.20
2022-09-06T06:44:14.255Z,13.50
2022-09-06T06:49:15.798Z,14.85
2022-09-06T06:54:17.284Z,13.95
2022-09-06T06:59:18.836Z,10.73
2022-09-06T07:04:20.370Z,14.25
2022-09-06T07:09:22.245Z,12.00
2022-09-06T07:14:23.773Z,12.88
2022-09-06T07:24:47.274Z,13.68
2022-09-06T07:29:48.767Z,18.33
2022-09-06T07:34:50.247Z,15.07
2022-09-06T07:39:51.814Z,18.27
2022-09-06T07:44:54.134Z,19.17
2022-09-06T07:55:17.174Z,17.52
2022-09-06T08:00:19.468Z,16.13
2022-09-06T08:10:42.511Z,12.82
2022-09-06T08:15:43.983Z,14.35
2022-09-06T08:20:45.468Z,12.07
2022-09-06T08:25:57.640Z,19.02
2022-09-06T08:31:10.810Z,12.73
2022-09-06T08:36:12.406Z,9.65
2022-09-06T08:41:16.850Z,10.55
2022-09-06T08:46:21.462Z,11.75
2022-09-06T08:52:16.827Z,8.30
2022-09-06T08:58:18.845Z,10.02
2022-09-06T09:03:24.938Z,8.55
2022-09-06T09:08:57.032Z,10.53
2022-09-06T09:13:59.528Z,8.90
2022-09-06T09:19:04.117Z,8.18
2022-09-06T09:24:08.669Z,6.80
2022-09-06T09:29:12.672Z,7.75
2022-09-06T09:34:30.974Z,5.93
2022-09-06T09:39:38.462Z,8.20
2022-09-06T09:44:44.334Z,8.40
2022-09-06T09:49:45.770Z,6.87
2022-09-06T09:54:47.750Z,6.93
2022-09-06T09:59:55.900Z,10.43
2022-09-06T10:05:25.311Z,8.55
2022-09-06T10:10:42.888Z,8.30
2022-09-06T10:15:44.539Z,3.30
2022-09-06T10:20:51.707Z,4.20
2022-09-06T10:26:16.287Z,5.80
2022-09-06T10:31:23.719Z,7.28
2022-09-06T10:36:44.203Z,3.50
2022-09-06T10:42:05.905Z,6.55
2022-09-06T10:47:13.637Z,11.65
2022-09-06T10:52:27.989Z,6.63
2022-09-06T11:09:02.349Z,6.63
2022-09-06T11:14:11.483Z,14.38
2022-09-06T11:19:26.087Z,5.97
2022-09-06T11:24:39.317Z,7.90
2022-09-06T11:29:45.163Z,11.18
2022-09-06T11:34:58.915Z,8.40
2022-09-06T11:45:52.903Z,6.00
2022-09-06T11:50:54.501Z,3.70
2022-09-06T11:56:02.033Z,11.50
2022-09-06T12:01:13.051Z,9.60
2022-09-06T12:06:19.197Z,9.43
2022-09-06T12:11:39.629Z,15.55
2022-09-06T12:16:59.140Z,8.23
2022-09-06T12:22:00.706Z,5.45
2022-09-06T12:27:15.692Z,8.75
2022-09-06T12:32:24.064Z,10.52
2022-09-06T12:37:37.393Z,9.27
2022-09-06T12:42:39.015Z,5.65
2022-09-06T12:47:40.542Z,8.23
2022-09-06T12:52:51.007Z,10.48
2022-09-06T12:57:58.120Z,6.72
2022-09-06T13:03:21.229Z,8.15
2022-09-06T13:08:30.766Z,10.18
2022-09-06T13:13:32.390Z,7.88
2022-09-06T13:18:36.878Z,14.25
2022-09-06T13:23:47.647Z,10.27
2022-09-06T13:28:49.147Z,9.27
2022-09-06T13:33:58.863Z,8.40
2022-09-06T13:39:03.484Z,17.20
2022-09-06T13:44:17.009Z,9.55
2022-09-06T13:49:18.501Z,7.45
2022-09-06T13:54:20.200Z,6.13
2022-09-06T13:59:22.208Z,9.27
2022-09-06T14:04:23.744Z,5.88
2022-09-06T14:09:25.241Z,5.20
2022-09-06T14:14:26.777Z,4.20
2022-09-06T14:19:28.842Z,5.72
2022-09-06T14:24:30.338Z,6.15
2022-09-06T14:29:31.958Z,4.85
2022-09-06T14:34:33.429Z,2.78
2022-09-06T14:39:34.999Z,4.43
2022-09-06T14:44:36.571Z,7.85
2022-09-06T14:49:38.062Z,6.10
2022-09-06T14:54:39.627Z,8.23
2022-09-06T14:59:41.331Z,11.70
2022-09-06T15:04:42.891Z,8.20
2022-09-06T15:09:44.366Z,7.22
2022-09-06T15:14:46.004Z,11.23
2022-09-06T15:19:47.529Z,4.60
2022-09-06T15:24:50.367Z,3.75
2022-09-06T15:29:51.855Z,4.95
2022-09-06T15:34:53.458Z,5.13
2022-09-06T15:39:55.050Z,8.93
2022-09-06T15:44:56.671Z,6.30
2022-09-06T15:49:58.173Z,7.30
2022-09-06T15:55:18.102Z,9.18
2022-09-06T16:00:21.992Z,7.97
2022-09-06T16:10:45.934Z,5.60
2022-09-06T16:16:00.938Z,5.30
2022-09-06T16:21:12.320Z,9.35
2022-09-06T16:26:15.929Z,5.18
2022-09-06T16:31:20.925Z,10.20
2022-09-06T16:36:22.589Z,10.20
2022-09-06T16:41:27.070Z,9.13
2022-09-06T16:46:28.821Z,5.55
2022-09-06T16:51:34.025Z,7.03
2022-09-06T16:56:36.202Z,6.32
2022-09-06T17:01:41.512Z,10.10
2022-09-06T17:06:46.758Z,7.63
2022-09-06T17:11:51.531Z,9.02
2022-09-06T17:17:05.365Z,7.43
2022-09-06T17:22:08.300Z,9.23
2022-09-06T17:27:10.073Z,7.35
2022-09-06T17:32:11.671Z,5.80
2022-09-06T17:37:14.318Z,7.60
2022-09-06T17:42:15.954Z,6.90
2022-09-06T17:47:17.449Z,7.88
2022-09-06T17:52:18.944Z,11.45
2022-09-06T17:57:20.473Z,8.65
2022-09-06T18:02:22.068Z,10.45
2022-09-06T18:07:23.553Z,6.82
2022-09-06T18:12:25.060Z,6.95
2022-09-06T18:17:26.861Z,4.95
2022-09-06T18:22:28.343Z,9.43
2022-09-06T18:27:30.325Z,7.43
2022-09-06T18:32:31.911Z,9.95
2022-09-06T18:37:36.073Z,9.18
2022-09-06T18:42:42.968Z,5.80
2022-09-06T18:47:44.732Z,8.48
2022-09-06T18:52:46.302Z,6.03
2022-09-06T18:57:47.819Z,10.73
2022-09-06T19:02:49.367Z,10.45
2022-09-06T19:07:50.931Z,9.75
2022-09-06T19:12:53.365Z,4.32
2022-09-06T19:17:55.180Z,4.47
2022-09-06T19:22:56.655Z,7.47
2022-09-06T19:27:58.330Z,5.75
2022-09-06T19:32:59.903Z,6.80
2022-09-06T19:38:01.438Z,10.27
2022-09-06T19:43:03.621Z,9.63
2022-09-06T19:48:06.532Z,10.43
2022-09-06T19:53:08.017Z,8.45
2022-09-06T19:58:09.556Z,6.78
2022-09-06T20:03:11.070Z,9.75
2022-09-06T20:08:13.537Z,6.28
2022-09-06T20:13:15.033Z,10.10
2022-09-06T20:18:17.706Z,7.30
2022-09-06T20:23:19.260Z,12.90
2022-09-06T20:28:20.755Z,6.95
2022-09-06T20:33:22.280Z,7.55
2022-09-06T20:38:24.545Z,6.57
2022-09-06T20:43:26.210Z,4.70
2022-09-06T20:48:27.828Z,5.82
2022-09-06T20:53:31.556Z,5.03
2022-09-06T20:58:33.151Z,7.10
2022-09-06T21:03:38.802Z,5.80
2022-09-06T21:08:42.859Z,6.65
2022-09-06T21:13:49.277Z,5.68
2022-09-06T21:18:52.187Z,4.83
2022-09-06T21:23:54.344Z,9.63
2022-09-06T21:28:56.205Z,7.28
2022-09-06T21:34:01.173Z,7.97
2022-09-06T21:39:06.218Z,4.22
2022-09-06T21:44:08.600Z,7.63
2022-09-06T21:49:12.717Z,6.90
2022-09-06T21:54:14.242Z,5.43
2022-09-06T21:59:15.701Z,9.43
2022-09-06T22:04:17.191Z,6.43
2022-09-06T22:09:18.728Z,6.32
2022-09-06T22:14:20.214Z,8.65
2022-09-06T22:19:21.703Z,16.90
2022-09-06T22:24:23.232Z,10.32
2022-09-06T22:29:25.161Z,8.98
2022-09-06T22:34:26.713Z,12.70
2022-09-06T22:39:28.253Z,13.82
2022-09-06T22:44:30.480Z,13.70
2022-09-06T22:49:32.080Z,11.98
2022-09-06T22:54:33.574Z,12.32
2022-09-06T22:59:36.006Z,9.98
2022-09-06T23:04:37.581Z,12.85
2022-09-06T23:09:39.159Z,7.32
2022-09-06T23:14:40.689Z,6.30
2022-09-06T23:19:42.240Z,7.50
2022-09-06T23:24:43.822Z,9.98
2022-09-06T23:29:46.005Z,11.68
2022-09-06T23:34:47.613Z,11.40
2022-09-06T23:39:49.200Z,12.13
2022-09-06T23:44:54.454Z,20.10
2022-09-06T23:49:55.975Z,17.13
2022-09-06T23:54:57.518Z,13.50
2022-09-06T23:59:59.016Z,19.10
